Time;durP1;ratioP1;P1;durP2;ratioP2;P2;SDS_P1;SDS_P2;PMS_P1;PMS_P2;Temp;Humidity;BMP_temperature;BMP_pressure;BME280_temperature;BME280_humidity;BME280_pressure;Samples;Min_cycle;Max_cycle;Signal;HPM_P1;HPM_P2
2021/09/19 05:03:38;;;;;;;3.15;1.50;;;;;;;13.58;99.70;92171.91;5060790;28;20104;-89
2021/09/19 05:06:04;;;;;;;2.45;1.35;;;;;;;13.52;99.60;92182.59;5054195;28;20056;-89
2021/09/19 05:08:29;;;;;;;2.40;1.48;;;;;;;13.41;99.73;92204.25;5055521;28;20048;-89
2021/09/19 05:10:55;;;;;;;3.55;1.60;;;;;;;13.49;100.00;92214.00;5039591;28;20473;-90
2021/09/19 05:21:47;;;;;;;2.88;1.40;;;;;;;13.28;100.00;92200.69;5072636;28;20131;-88
2021/09/19 05:27:37;;;;;;;2.15;1.20;;;;;;;13.22;100.00;92199.28;5063155;28;20301;-89
2021/09/19 05:30:04;;;;;;;2.53;1.27;;;;;;;13.21;100.00;92206.38;5006380;28;20032;-89
2021/09/19 05:32:30;;;;;;;2.20;1.25;;;;;;;13.24;100.00;92207.63;5040132;28;20099;-88
2021/09/19 05:38:54;;;;;;;0.80;0.70;;;;;;;13.28;100.00;92200.69;5065852;28;20067;-89
2021/09/19 05:41:19;;;;;;;3.10;1.10;;;;;;;13.24;100.00;92170.81;5058502;28;20045;-88
2021/09/19 05:43:45;;;;;;;5.45;1.63;;;;;;;13.14;100.00;92132.50;5041059;28;20036;-89
2021/09/19 05:46:11;;;;;;;2.42;1.20;;;;;;;13.05;100.00;92111.47;5026111;28;20499;-90
2021/09/19 05:48:38;;;;;;;2.55;0.88;;;;;;;13.09;99.77;92143.16;5050222;28;20530;-90
2021/09/19 05:51:04;;;;;;;2.47;1.10;;;;;;;13.01;95.38;92152.56;5045486;28;20044;-89
2021/09/19 05:53:30;;;;;;;8.18;0.85;;;;;;;13.08;100.00;92181.81;5050586;28;20041;-89
2021/09/19 05:55:55;;;;;;;0.30;0.30;;;;;;;13.05;100.00;92200.03;5041672;28;20494;-90
2021/09/19 05:58:21;;;;;;;30.02;1.17;;;;;;;12.94;100.00;92217.94;5024616;28;20494;-92
2021/09/19 06:00:47;;;;;;;16.48;0.82;;;;;;;12.89;100.00;92223.34;5016156;28;20139;-90
2021/09/19 06:03:12;;;;;;;5.32;0.80;;;;;;;12.77;100.00;92202.94;5026376;28;20130;-89
2021/09/19 06:05:38;;;;;;;1.10;0.90;;;;;;;12.74;100.00;92187.00;5021004;28;20080;-90
2021/09/19 06:08:04;;;;;;;1.52;1.08;;;;;;;12.71;100.00;92164.75;5039938;28;20048;-93
2021/09/19 06:10:30;;;;;;;1.15;0.75;;;;;;;12.86;100.00;92168.81;5018571;28;20425;-89
2021/09/19 06:12:55;;;;;;;1.30;0.80;;;;;;;12.82;100.00;92157.38;5038297;28;20374;-91
2021/09/19 06:15:21;;;;;;;1.50;1.00;;;;;;;12.84;100.00;92160.47;5024883;28;20041;-90
2021/09/19 06:17:46;;;;;;;1.88;1.23;;;;;;;12.77;100.00;92160.16;5015635;28;20500;-89
2021/09/19 06:20:12;;;;;;;1.52;1.02;;;;;;;12.85;100.00;92194.28;5061081;28;20369;-89
2021/09/19 06:22:38;;;;;;;2.72;1.08;;;;;;;12.85;100.00;92209.28;5055987;28;20090;-88
2021/09/19 06:25:04;;;;;;;1.65;0.95;;;;;;;12.91;100.00;92218.56;5036986;28;20041;-91
2021/09/19 06:27:31;;;;;;;6.93;1.30;;;;;;;12.84;100.00;92208.50;5022073;28;20037;-91
2021/09/19 06:29:57;;;;;;;4.53;0.75;;;;;;;12.88;100.00;92212.06;5018139;28;20063;-90
2021/09/19 06:32:23;;;;;;;1.40;0.75;;;;;;;12.85;100.00;92212.66;5030470;28;20036;-91
2021/09/19 06:34:48;;;;;;;4.68;1.20;;;;;;;12.71;100.00;92197.03;5035434;28;20044;-91
2021/09/19 06:37:14;;;;;;;0.82;0.80;;;;;;;12.90;100.00;92222.25;5044704;28;20056;-90
2021/09/19 06:39:40;;;;;;;0.80;0.70;;;;;;;12.86;100.00;92205.59;5041420;28;20040;-90
2021/09/19 06:42:05;;;;;;;3.17;0.88;;;;;;;12.95;100.00;92201.13;5020794;28;20131;-90
2021/09/19 06:44:31;;;;;;;1.40;0.82;;;;;;;12.83;100.00;92178.06;5017277;28;20075;-90
2021/09/19 06:46:57;;;;;;;13.40;1.23;;;;;;;12.86;100.00;92189.81;5044377;28;20048;-90
2021/09/19 06:49:26;;;;;;;9.20;0.50;;;;;;;13.01;100.00;92210.38;5045258;28;20048;-90
2021/09/19 06:51:51;;;;;;;17.02;0.70;;;;;;;12.81;100.00;92193.38;5034182;28;20097;-90
2021/09/19 06:54:17;;;;;;;11.30;0.50;;;;;;;12.75;100.00;92162.31;5063394;28;20053;-89
2021/09/19 06:56:47;;;;;;;10.43;0.70;;;;;;;12.67;100.00;92148.06;5022794;28;20047;-91
2021/09/19 06:59:13;;;;;;;5.75;0.65;;;;;;;12.94;100.00;92165.41;5034034;28;20135;-91
2021/09/19 07:01:39;;;;;;;0.47;0.47;;;;;;;12.85;100.00;92138.34;5045460;28;20472;-91
2021/09/19 07:04:05;;;;;;;7.80;0.95;;;;;;;12.84;100.00;92134.97;5032483;28;20043;-91
2021/09/19 07:06:30;;;;;;;8.88;0.65;;;;;;;12.91;100.00;92153.66;5031860;28;20370;-89
2021/09/19 07:08:57;;;;;;;5.70;0.47;;;;;;;12.88;100.00;92132.50;5012848;28;20072;-90
2021/09/19 07:11:23;;;;;;;1.02;0.70;;;;;;;12.76;100.00;92095.56;5059297;28;20033;-92
2021/09/19 07:13:49;;;;;;;1.23;0.70;;;;;;;12.82;100.00;92086.44;5060602;28;20093;-89
2021/09/19 07:16:15;;;;;;;1.52;0.85;;;;;;;12.92;100.00;92091.38;5023798;28;20028;-89
2021/09/19 07:18:42;;;;;;;0.85;0.70;;;;;;;12.89;100.00;92089.38;5030016;28;20080;-93
2021/09/19 07:21:08;;;;;;;10.50;1.10;;;;;;;12.87;99.44;92083.66;5025103;28;20055;-91
2021/09/19 07:23:34;;;;;;;23.52;1.13;;;;;;;12.90;100.00;92104.84;5057924;28;20445;-93
2021/09/19 07:26:00;;;;;;;10.50;0.50;;;;;;;12.63;100.00;92081.47;5021512;28;20068;-91
2021/09/19 07:28:27;;;;;;;8.70;0.60;;;;;;;12.75;100.00;92109.78;5013652;28;20041;-90
2021/09/19 07:30:55;;;;;;;1.33;0.38;;;;;;;12.57;100.00;92109.00;5019286;28;20097;-90
2021/09/19 07:33:22;;;;;;;8.45;0.70;;;;;;;12.59;100.00;92101.56;5048922;28;20045;-91
2021/09/19 07:35:49;;;;;;;14.93;0.93;;;;;;;12.47;100.00;92083.78;5051190;28;20207;-91
2021/09/19 07:38:16;;;;;;;2.22;1.30;;;;;;;12.46;100.00;92066.50;5035387;28;20501;-91
2021/09/19 07:40:42;;;;;;;2.10;1.15;;;;;;;12.64;100.00;92083.81;5055133;28;20074;-91
2021/09/19 07:43:08;;;;;;;2.05;1.17;;;;;;;12.77;100.00;92081.34;5012414;28;20048;-91
2021/09/19 07:45:34;;;;;;;0.95;0.70;;;;;;;12.66;100.00;92059.88;5036567;28;20056;-92
2021/09/19 07:48:02;;;;;;;0.52;0.52;;;;;;;12.84;96.15;92058.78;5027534;28;20044;-90
2021/09/19 07:50:28;;;;;;;0.63;0.60;;;;;;;13.01;95.57;92065.88;5014092;28;20169;-86
2021/09/19 07:52:54;;;;;;;2.25;0.75;;;;;;;13.17;96.20;92074.06;5043626;28;20065;-93
2021/09/19 07:55:20;;;;;;;1.73;0.60;;;;;;;13.26;94.44;92060.88;5057095;28;20048;-91
2021/09/19 07:57:46;;;;;;;0.80;0.70;;;;;;;13.30;94.31;92052.09;5049107;28;20052;-90
2021/09/19 08:00:12;;;;;;;2.72;0.70;;;;;;;13.25;92.37;92062.00;5023729;28;20072;-91
2021/09/19 08:02:38;;;;;;;0.57;0.57;;;;;;;13.23;91.47;92085.19;5065528;28;20028;-90
2021/09/19 08:05:08;;;;;;;0.68;0.68;;;;;;;12.97;97.48;92080.72;5037569;28;20070;-93
2021/09/19 08:07:34;;;;;;;12.63;1.13;;;;;;;12.87;100.00;92086.28;5036576;28;20140;-89
2021/09/19 08:10:00;;;;;;;7.63;0.95;;;;;;;12.92;100.00;92096.63;5053854;28;20036;-92
2021/09/19 08:12:25;;;;;;;0.57;0.57;;;;;;;12.85;100.00;92106.84;5031908;28;20044;-92
2021/09/19 08:14:51;;;;;;;1.85;1.05;;;;;;;12.79;100.00;92085.22;5032385;28;20039;-90
2021/09/19 08:17:17;;;;;;;0.85;0.75;;;;;;;12.76;100.00;92053.53;5042735;28;20174;-91
2021/09/19 08:19:43;;;;;;;0.98;0.77;;;;;;;12.75;100.00;92041.50;5019002;28;20154;-90
2021/09/19 08:22:09;;;;;;;0.65;0.55;;;;;;;12.94;99.63;92070.06;4997876;28;20173;-91
2021/09/19 08:24:34;;;;;;;0.68;0.60;;;;;;;12.84;97.12;92050.16;5008172;28;20075;-90
2021/09/19 08:27:00;;;;;;;1.85;0.90;;;;;;;13.02;97.61;92087.69;5000795;28;20041;-92
2021/09/19 08:29:26;;;;;;;4.55;2.95;;;;;;;12.95;99.77;92088.16;5043475;28;20090;-91
2021/09/19 08:31:53;;;;;;;1.65;1.17;;;;;;;12.88;99.60;92061.56;5024385;28;20109;-91
2021/09/19 08:34:19;;;;;;;1.45;0.95;;;;;;;12.82;99.76;92053.06;5015432;28;20066;-90
2021/09/19 08:36:45;;;;;;;10.13;6.45;;;;;;;12.89;98.12;92058.63;5047230;28;20064;-92
2021/09/19 08:39:11;;;;;;;4.60;2.40;;;;;;;12.97;99.19;92103.59;5019947;28;20040;-90
2021/09/19 08:41:36;;;;;;;2.65;1.48;;;;;;;12.85;99.89;92099.72;5026229;28;20052;-91
2021/09/19 08:44:03;;;;;;;4.65;1.90;;;;;;;12.91;100.00;92087.97;5019220;28;20040;-90
2021/09/19 08:46:30;;;;;;;1.95;1.20;;;;;;;12.90;100.00;92096.97;5033326;28;20049;-92
2021/09/19 08:48:56;;;;;;;3.38;0.98;;;;;;;12.82;100.00;92089.06;5025687;28;20045;-91
2021/09/19 08:51:23;;;;;;;8.93;4.10;;;;;;;12.80;100.00;92065.72;5035861;28;20074;-91
2021/09/19 08:53:48;;;;;;;2.65;1.30;;;;;;;12.94;100.00;92065.56;5013585;28;20033;-93
2021/09/19 08:56:25;;;;;;;2.50;1.33;;;;;;;13.02;100.00;92071.91;5029493;28;21706;-90
2021/09/19 08:58:52;;;;;;;1.27;0.90;;;;;;;13.15;99.73;92070.97;5027468;28;20087;-90
2021/09/19 09:01:19;;;;;;;1.58;1.10;;;;;;;13.24;99.13;92071.75;5012638;28;20102;-90
2021/09/19 09:03:45;;;;;;;2.13;1.20;;;;;;;13.34;97.31;92060.13;5026409;28;20059;-91
2021/09/19 09:06:14;;;;;;;1.65;1.15;;;;;;;13.37;98.11;92058.75;5034039;28;20044;-90
2021/09/19 09:08:40;;;;;;;2.20;1.35;;;;;;;13.41;97.84;92052.53;5036238;28;20041;-92
2021/09/19 09:11:09;;;;;;;2.70;1.73;;;;;;;13.44;96.96;92054.56;5032888;28;20484;-91
2021/09/19 09:13:40;;;;;;;4.28;1.98;;;;;;;13.42;96.26;92027.00;5009874;28;20041;-90
2021/09/19 09:16:15;;;;;;;2.93;1.43;;;;;;;13.49;96.35;92043.88;5037242;28;20040;-90
2021/09/19 09:18:43;;;;;;;5.95;2.38;;;;;;;13.39;96.89;92065.22;5041318;28;20055;-90
2021/09/19 09:25:11;;;;;;;3.08;1.55;;;;;;;13.64;97.31;92054.94;5100288;23;20148;-77
2021/09/19 09:27:38;;;;;;;2.58;1.33;;;;;;;13.69;98.07;92052.13;5040078;28;20119;-79
2021/09/19 09:30:12;;;;;;;2.70;1.67;;;;;;;13.80;96.11;92055.97;5050498;28;20045;-79
2021/09/19 09:33:07;;;;;;;4.07;2.40;;;;;;;13.94;96.21;92071.56;5039581;28;20108;-79
2021/09/19 09:35:37;;;;;;;4.05;2.38;;;;;;;13.93;96.40;92068.13;5038846;28;20049;-77
2021/09/19 09:38:21;;;;;;;4.50;2.20;;;;;;;14.02;95.42;92056.81;5025597;28;20495;-78
2021/09/19 09:40:47;;;;;;;6.38;2.22;;;;;;;13.99;96.13;92052.97;5027337;28;20029;-77
2021/09/19 09:43:16;;;;;;;4.43;2.65;;;;;;;14.00;97.41;92051.84;5031507;28;20033;-79
2021/09/19 09:45:44;;;;;;;4.43;2.40;;;;;;;14.04;97.46;92057.25;5030546;28;20041;-77
2021/09/19 09:48:26;;;;;;;4.18;2.47;;;;;;;14.10;96.97;92056.00;5013793;28;20047;-77
2021/09/19 09:50:57;;;;;;;4.03;2.60;;;;;;;14.13;97.62;92047.47;5034549;28;20060;-78
2021/09/19 09:53:24;;;;;;;4.38;2.63;;;;;;;14.19;97.58;92050.69;5054467;28;20044;-79
2021/09/19 09:55:52;;;;;;;5.15;2.60;;;;;;;14.28;97.61;92041.66;5050169;28;20033;-78
2021/09/19 09:58:18;;;;;;;5.60;2.45;;;;;;;14.33;98.05;92054.63;5057010;28;20041;-79
2021/09/19 10:00:47;;;;;;;5.30;2.55;;;;;;;14.33;96.53;92044.09;5019537;28;20071;-79
2021/09/19 10:03:13;;;;;;;48.00;23.33;;;;;;;14.30;97.42;92057.13;5020120;28;20060;-80
2021/09/19 10:05:40;;;;;;;20.30;8.55;;;;;;;14.31;94.98;92051.53;5047773;28;20104;-80
2021/09/19 10:08:06;;;;;;;5.32;2.85;;;;;;;14.28;94.35;92057.44;5020765;28;20052;-78
2021/09/19 10:10:38;;;;;;;6.70;3.55;;;;;;;14.30;94.78;92043.97;5031659;28;20479;-77
2021/09/19 10:13:05;;;;;;;8.90;5.57;;;;;;;14.33;95.06;92044.09;5035225;28;20049;-78
2021/09/19 10:15:31;;;;;;;5.32;2.80;;;;;;;14.30;95.50;92034.22;5059046;28;20072;-79
2021/09/19 10:17:57;;;;;;;7.05;4.38;;;;;;;14.19;97.61;92051.47;5029553;28;20435;-79
2021/09/19 10:20:44;;;;;;;15.68;2.05;;;;;;;13.90;95.90;92113.50;5053575;28;20431;-76
2021/09/19 10:23:24;;;;;;;5.68;1.10;;;;;;;13.27;97.47;92041.41;5059784;28;20092;-81
2021/09/19 10:26:07;;;;;;;0.77;0.70;;;;;;;13.03;97.15;92079.47;5059760;28;20599;-80
2021/09/19 10:28:40;;;;;;;1.92;0.65;;;;;;;12.74;97.06;92076.69;5061656;28;20052;-77
2021/09/19 10:31:15;;;;;;;0.38;0.38;;;;;;;12.56;93.74;92018.94;5061666;28;20037;-79
2021/09/19 10:33:43;;;;;;;0.30;0.30;;;;;;;12.42;92.99;92023.56;5065949;28;20044;-78
2021/09/19 10:36:21;;;;;;;1.05;0.57;;;;;;;12.31;92.01;92066.94;5060793;28;20037;-78
2021/09/19 10:38:47;;;;;;;0.60;0.60;;;;;;;12.20;91.99;92090.81;5061119;28;20041;-78
2021/09/19 10:41:19;;;;;;;1.25;0.80;;;;;;;12.08;91.89;92067.81;5042994;28;20036;-80
2021/09/19 10:43:53;;;;;;;0.65;0.65;;;;;;;12.02;90.34;92057.75;5058901;28;20175;-80
2021/09/19 10:46:39;;;;;;;0.63;0.63;;;;;;;11.88;92.07;92027.16;5050156;28;20123;-80
2021/09/19 10:49:13;;;;;;;0.90;0.63;;;;;;;11.71;93.20;92031.56;5041442;28;20049;-79
2021/09/19 10:52:00;;;;;;;0.80;0.60;;;;;;;11.63;92.48;92033.09;5059032;28;20040;-79
2021/09/19 10:54:49;;;;;;;0.95;0.70;;;;;;;11.54;92.60;92068.97;5057113;28;20045;-78
2021/09/19 10:57:23;;;;;;;0.63;0.60;;;;;;;11.50;93.28;92089.00;5063736;28;20044;-79
2021/09/19 11:00:07;;;;;;;0.95;0.68;;;;;;;11.46;94.92;92121.06;5061326;28;20087;-78
2021/09/19 11:02:34;;;;;;;23.10;7.88;;;;;;;11.44;95.20;92144.16;5058392;28;20379;-78
2021/09/19 11:05:22;;;;;;;3.90;1.85;;;;;;;11.30;99.21;92153.16;5041820;28;20033;-79
2021/09/19 11:07:50;;;;;;;28.33;1.00;;;;;;;11.23;100.00;92140.47;5060885;28;20041;-80
2021/09/19 11:10:16;;;;;;;2.05;1.08;;;;;;;11.12;100.00;92110.34;5067205;28;20036;-78
2021/09/19 11:12:46;;;;;;;0.90;0.82;;;;;;;11.13;100.00;92106.66;5063631;28;20069;-78
2021/09/19 11:15:22;;;;;;;18.00;9.32;;;;;;;11.13;99.23;92099.56;5058588;28;20140;-78
2021/09/19 11:17:51;;;;;;;3.75;1.60;;;;;;;11.15;99.06;92100.06;5058983;28;20383;-79
2021/09/19 11:20:17;;;;;;;1.50;1.15;;;;;;;11.27;98.35;92117.84;5059580;28;20036;-79
2021/09/19 11:22:46;;;;;;;1.58;0.80;;;;;;;11.36;98.54;92110.81;5060060;28;20053;-78
2021/09/19 11:25:14;;;;;;;1.27;1.00;;;;;;;11.39;99.15;92119.91;5067021;28;20101;-79
2021/09/19 11:27:43;;;;;;;2.05;1.20;;;;;;;11.40;99.16;92111.75;5086079;28;20055;-79
2021/09/19 11:30:10;;;;;;;0.90;0.73;;;;;;;11.31;97.61;92118.81;5087748;28;20036;-79
2021/09/19 11:32:37;;;;;;;3.72;2.10;;;;;;;11.38;98.16;92124.41;5096305;28;20130;-78
2021/09/19 11:35:04;;;;;;;4.20;2.50;;;;;;;11.42;98.41;92127.19;5067556;28;20067;-78
2021/09/19 11:37:30;;;;;;;1.95;1.35;;;;;;;11.39;100.00;92131.19;5079690;28;20441;-77
2021/09/19 11:39:55;;;;;;;2.85;1.40;;;;;;;11.32;100.00;92136.06;5081050;28;20041;-78
2021/09/19 11:42:26;;;;;;;2.05;1.15;;;;;;;11.31;100.00;92133.75;5077039;28;20490;-79
2021/09/19 11:44:52;;;;;;;2.42;1.38;;;;;;;11.25;100.00;92125.22;5075782;28;20044;-78
2021/09/19 11:47:20;;;;;;;1.88;1.23;;;;;;;11.18;100.00;92106.53;5067385;28;20505;-79
2021/09/19 11:49:50;;;;;;;1.08;0.75;;;;;;;11.19;100.00;92108.06;5079406;28;20132;-80
2021/09/19 11:52:16;;;;;;;0.52;0.52;;;;;;;11.26;99.07;92124.19;5064086;28;20055;-82
2021/09/19 11:54:43;;;;;;;1.00;0.80;;;;;;;11.34;98.58;92135.78;5078510;28;20070;-79
2021/09/19 11:57:13;;;;;;;2.15;0.80;;;;;;;11.38;98.76;92131.50;5075661;28;20044;-79
2021/09/19 11:59:44;;;;;;;2.28;1.35;;;;;;;11.48;95.88;92140.94;5057952;28;20109;-79
2021/09/19 12:02:11;;;;;;;1.02;0.73;;;;;;;11.35;100.00;92153.81;5044862;28;20037;-79
2021/09/19 12:04:40;;;;;;;23.00;1.13;;;;;;;11.31;100.00;92155.50;5079756;28;20521;-77
2021/09/19 12:07:09;;;;;;;10.73;0.75;;;;;;;11.18;100.00;92157.09;5064315;28;20060;-78
2021/09/19 12:09:40;;;;;;;12.15;0.77;;;;;;;11.21;100.00;92167.00;5081851;28;20296;-79
2021/09/19 12:12:12;;;;;;;17.00;1.33;;;;;;;11.23;100.00;92169.28;5066811;28;20040;-79
2021/09/19 12:14:44;;;;;;;14.70;1.40;;;;;;;11.19;100.00;92168.34;5078242;28;20044;-77
2021/09/19 12:17:11;;;;;;;3.08;1.30;;;;;;;11.17;100.00;92158.16;5070626;28;20048;-79
2021/09/19 12:19:39;;;;;;;1.50;1.10;;;;;;;11.18;100.00;92145.84;5045343;28;20095;-78
2021/09/19 12:22:14;;;;;;;2.22;1.30;;;;;;;11.19;100.00;92148.16;5070746;28;20585;-79
2021/09/19 12:24:40;;;;;;;1.48;1.10;;;;;;;11.27;100.00;92138.03;5069308;28;20098;-79
2021/09/19 12:27:21;;;;;;;1.63;1.13;;;;;;;11.28;98.09;92124.66;5042860;28;20045;-78
2021/09/19 12:30:05;;;;;;;1.17;1.00;;;;;;;11.28;96.77;92108.94;5060056;28;20052;-78
2021/09/19 12:32:36;;;;;;;1.33;0.95;;;;;;;11.33;96.08;92111.41;5059416;28;20056;-78
2021/09/19 12:35:08;;;;;;;2.17;1.17;;;;;;;11.33;96.42;92127.16;5073869;28;20501;-78
2021/09/19 12:37:38;;;;;;;1.80;1.15;;;;;;;11.36;95.24;92131.00;5068009;28;20040;-79
2021/09/19 12:40:08;;;;;;;2.20;1.20;;;;;;;11.37;94.35;92128.09;5067004;28;20033;-78
2021/09/19 12:42:34;;;;;;;3.35;1.75;;;;;;;11.41;93.17;92131.66;5075540;28;20108;-79
2021/09/19 12:45:00;;;;;;;7.53;3.47;;;;;;;11.51;93.66;92138.50;5060343;28;20044;-81
2021/09/19 12:47:30;;;;;;;2.83;1.50;;;;;;;11.43;96.24;92147.06;5070059;28;20055;-80
2021/09/19 12:49:55;;;;;;;25.40;12.07;;;;;;;11.35;99.19;92145.16;5056936;28;20055;-80
2021/09/19 12:52:33;;;;;;;43.38;3.90;;;;;;;11.15;100.00;92141.97;5076059;28;20036;-79
2021/09/19 12:55:00;;;;;;;1.92;1.17;;;;;;;11.20;99.40;92146.31;5041988;28;20045;-80
2021/09/19 12:57:30;;;;;;;21.77;6.18;;;;;;;11.11;100.00;92164.59;5052181;28;20513;-80
2021/09/19 12:59:57;;;;;;;40.35;5.07;;;;;;;10.93;100.00;92171.53;5067496;28;20033;-81
2021/09/19 13:02:24;;;;;;;51.47;1.92;;;;;;;10.84;100.00;92173.28;5065331;28;20051;-80
2021/09/19 13:04:51;;;;;;;33.45;6.05;;;;;;;10.77;100.00;92188.63;5057598;28;20094;-80
2021/09/19 13:07:18;;;;;;;4.75;2.42;;;;;;;10.69;100.00;92191.94;5042019;28;20445;-80
2021/09/19 13:09:44;;;;;;;1.08;0.93;;;;;;;10.76;100.00;92200.16;5041479;28;20040;-79
2021/09/19 13:12:11;;;;;;;1.13;0.75;;;;;;;10.75;99.87;92196.00;5073518;28;20096;-80
2021/09/19 13:14:38;;;;;;;1.10;0.80;;;;;;;10.76;99.79;92202.78;5056929;28;20052;-80
2021/09/19 13:17:04;;;;;;;1.17;0.80;;;;;;;10.79;97.09;92189.91;5072895;28;20051;-80
2021/09/19 13:19:30;;;;;;;0.75;0.63;;;;;;;10.83;97.30;92196.09;5036419;28;20120;-80
2021/09/19 13:21:56;;;;;;;0.98;0.80;;;;;;;10.91;96.11;92206.94;5054386;28;20072;-80
2021/09/19 13:26:49;;;;;;;1.05;0.80;;;;;;;10.93;93.00;92202.94;5052468;28;20080;-80
2021/09/19 13:29:16;;;;;;;1.17;0.85;;;;;;;10.89;91.08;92214.31;5035452;28;20041;-79
2021/09/19 13:31:43;;;;;;;0.73;0.70;;;;;;;10.89;90.91;92222.94;5037150;28;20045;-79
2021/09/19 13:34:09;;;;;;;0.50;0.50;;;;;;;10.84;91.68;92225.66;5047414;28;20060;-79
2021/09/19 13:36:36;;;;;;;0.65;0.60;;;;;;;10.79;91.30;92231.78;5034950;28;20049;-79
2021/09/19 13:39:02;;;;;;;0.65;0.52;;;;;;;10.76;91.66;92214.06;5041692;28;20176;-79
2021/09/19 13:41:28;;;;;;;1.38;0.80;;;;;;;10.80;92.53;92209.00;5056112;28;20056;-80
2021/09/19 13:43:56;;;;;;;1.00;0.90;;;;;;;10.81;91.72;92210.56;5049661;28;20042;-79
2021/09/19 13:46:21;;;;;;;1.02;0.85;;;;;;;10.81;91.83;92200.09;5019269;28;20128;-80
2021/09/19 13:48:48;;;;;;;1.17;0.80;;;;;;;10.84;92.21;92184.53;5005041;28;20509;-80
2021/09/19 13:51:51;;;;;;;2.25;0.80;;;;;;;10.88;91.81;92163.78;5039447;28;20065;-80
2021/09/19 13:54:16;;;;;;;1.33;0.70;;;;;;;10.94;89.46;92154.75;5046332;28;20079;-80
2021/09/19 13:56:47;;;;;;;0.30;0.30;;;;;;;10.99;89.32;92169.59;5024960;28;20552;-77
2021/09/19 13:59:15;;;;;;;0.93;0.63;;;;;;;10.93;88.33;92129.63;5028123;28;20050;-81
2021/09/19 14:01:41;;;;;;;0.73;0.60;;;;;;;10.87;88.04;92109.84;5054793;28;20411;-79
2021/09/19 14:04:06;;;;;;;0.50;0.50;;;;;;;10.78;87.29;92111.63;5035179;28;20041;-80
2021/09/19 14:06:34;;;;;;;0.73;0.70;;;;;;;10.75;87.49;92097.28;5037656;28;20116;-79
2021/09/19 14:09:03;;;;;;;0.93;0.60;;;;;;;10.74;86.36;92103.63;5043525;28;20069;-80
2021/09/19 14:11:29;;;;;;;0.55;0.55;;;;;;;10.69;86.98;92144.81;5026522;28;20041;-79
2021/09/19 14:13:55;;;;;;;0.50;0.50;;;;;;;10.64;85.91;92122.16;5039104;28;20092;-78
2021/09/19 14:16:20;;;;;;;0.57;0.57;;;;;;;10.61;85.70;92125.38;5039130;28;20123;-80
2021/09/19 14:18:46;;;;;;;0.52;0.50;;;;;;;10.57;84.13;92103.47;5052006;28;20073;-80
2021/09/19 14:21:11;;;;;;;0.68;0.60;;;;;;;10.58;85.52;92108.41;5036281;28;20064;-79
2021/09/19 14:23:37;;;;;;;0.80;0.70;;;;;;;10.53;85.00;92098.03;5054144;28;20077;-79
2021/09/19 14:26:03;;;;;;;1.08;0.60;;;;;;;10.48;84.68;92106.00;5065567;28;20080;-79
2021/09/19 14:28:28;;;;;;;0.75;0.60;;;;;;;10.46;84.52;92107.34;5061339;28;20036;-79
2021/09/19 14:30:54;;;;;;;0.63;0.52;;;;;;;10.41;83.74;92119.47;5078317;28;20083;-79
2021/09/19 14:33:20;;;;;;;0.52;0.50;;;;;;;10.40;83.53;92130.22;5067516;28;20568;-79
2021/09/19 14:35:45;;;;;;;1.17;0.63;;;;;;;10.46;83.63;92147.38;5075948;28;20099;-80
2021/09/19 14:38:11;;;;;;;0.60;0.60;;;;;;;10.47;82.67;92143.72;5055083;28;20052;-80
2021/09/19 14:40:37;;;;;;;0.65;0.63;;;;;;;10.48;81.66;92137.41;5052788;28;20607;-79
2021/09/19 14:43:02;;;;;;;0.57;0.50;;;;;;;10.46;82.20;92118.59;5066816;28;20049;-79
2021/09/19 14:45:28;;;;;;;1.38;0.85;;;;;;;10.41;81.48;92129.19;5046911;28;20029;-79
2021/09/19 14:47:55;;;;;;;0.57;0.57;;;;;;;10.40;80.97;92120.56;5057133;28;20045;-80
2021/09/19 14:50:21;;;;;;;0.50;0.50;;;;;;;10.45;81.58;92135.38;5055875;28;20713;-79
2021/09/19 14:52:46;;;;;;;3.88;0.57;;;;;;;10.43;81.00;92139.34;5057414;28;20053;-79
2021/09/19 14:55:12;;;;;;;0.45;0.45;;;;;;;10.46;78.92;92133.53;5066718;28;20036;-79
2021/09/19 14:57:39;;;;;;;0.75;0.65;;;;;;;10.47;78.96;92133.25;5057188;28;20052;-79
2021/09/19 15:00:07;;;;;;;0.60;0.50;;;;;;;10.50;79.86;92122.19;5054796;28;20028;-79
2021/09/19 15:02:33;;;;;;;0.75;0.60;;;;;;;10.52;78.33;92124.50;5039521;28;20634;-79
2021/09/19 15:04:59;;;;;;;0.73;0.50;;;;;;;10.49;76.28;92110.19;5061135;28;20045;-80
2021/09/19 15:07:24;;;;;;;0.73;0.60;;;;;;;10.51;76.94;92112.47;5061106;28;20037;-79
2021/09/19 15:09:50;;;;;;;0.55;0.40;;;;;;;10.53;77.12;92134.66;5057655;28;20041;-79
2021/09/19 15:12:16;;;;;;;0.45;0.40;;;;;;;10.56;77.05;92114.97;5057606;28;20048;-79
2021/09/19 15:14:41;;;;;;;1.15;0.63;;;;;;;10.55;76.79;92126.53;5060963;28;20037;-78
2021/09/19 15:17:07;;;;;;;1.08;0.60;;;;;;;10.58;75.88;92133.78;5039698;28;20113;-78
2021/09/19 15:19:33;;;;;;;0.30;0.30;;;;;;;10.61;75.38;92126.13;5059675;28;20041;-79
2021/09/19 15:21:59;;;;;;;0.65;0.50;;;;;;;10.66;75.86;92145.41;5057114;28;20052;-79
2021/09/19 15:24:25;;;;;;;0.40;0.40;;;;;;;10.67;73.85;92133.88;5057469;28;20039;-78
2021/09/19 15:26:51;;;;;;;0.40;0.40;;;;;;;10.74;74.72;92136.84;5059324;28;20497;-79
2021/09/19 15:29:17;;;;;;;2.15;0.50;;;;;;;10.78;75.02;92135.19;5082240;28;20070;-79
2021/09/19 15:31:43;;;;;;;0.40;0.40;;;;;;;10.80;72.89;92125.97;5080828;28;20044;-79
2021/09/19 15:34:08;;;;;;;0.32;0.32;;;;;;;10.87;73.06;92132.66;5086086;28;20497;-80
2021/09/19 15:36:34;;;;;;;0.57;0.57;;;;;;;10.90;73.22;92119.75;5084978;28;20032;-79
2021/09/19 15:39:00;;;;;;;0.40;0.40;;;;;;;10.94;73.05;92097.16;5096505;28;20047;-78
2021/09/19 15:41:26;;;;;;;0.30;0.30;;;;;;;10.96;73.05;92112.53;5080791;28;20053;-79
2021/09/19 15:43:51;;;;;;;0.35;0.35;;;;;;;11.02;71.87;92112.13;5079721;28;20051;-79
2021/09/19 15:46:20;;;;;;;0.30;0.30;;;;;;;10.99;72.73;92099.63;5072318;28;20509;-80
2021/09/19 15:48:48;;;;;;;0.30;0.30;;;;;;;11.06;71.67;92101.06;5077227;28;20044;-80
2021/09/19 15:51:14;;;;;;;0.40;0.40;;;;;;;11.06;71.19;92106.31;5065270;28;20445;-79
2021/09/19 15:53:42;;;;;;;0.50;0.50;;;;;;;11.08;71.94;92125.91;5097376;28;20036;-80
2021/09/19 15:56:10;;;;;;;0.30;0.30;;;;;;;11.03;72.47;92116.31;5089062;28;20035;-80
2021/09/19 15:58:36;;;;;;;0.50;0.50;;;;;;;11.01;72.34;92109.81;5037937;28;20125;-79
2021/09/19 16:01:03;;;;;;;0.30;0.30;;;;;;;10.98;71.78;92103.31;5070773;28;20044;-79
2021/09/19 16:03:32;;;;;;;16.35;0.68;;;;;;;10.92;73.06;92106.34;5060856;28;20102;-79
2021/09/19 16:05:59;;;;;;;0.30;0.30;;;;;;;11.00;69.82;92097.78;5077976;28;20051;-80
2021/09/19 16:08:25;;;;;;;0.40;0.40;;;;;;;11.03;71.28;92111.06;5068746;28;20048;-78
2021/09/19 16:10:52;;;;;;;0.55;0.40;;;;;;;11.01;69.99;92113.22;5066956;28;20067;-78
2021/09/19 16:13:19;;;;;;;0.40;0.40;;;;;;;11.01;71.54;92109.81;5074271;28;20032;-79
2021/09/19 16:15:44;;;;;;;0.30;0.30;;;;;;;10.98;72.70;92105.94;5067129;28;20044;-79
2021/09/19 16:18:10;;;;;;;0.30;0.30;;;;;;;11.06;69.89;92101.06;5078108;28;20074;-79
2021/09/19 16:20:37;;;;;;;0.30;0.30;;;;;;;10.92;72.14;92120.22;5094348;28;20157;-78
2021/09/19 16:23:04;;;;;;;2.70;0.38;;;;;;;10.93;71.45;92113.16;5070464;28;20032;-79
2021/09/19 16:25:31;;;;;;;7.63;0.55;;;;;;;10.84;71.86;92123.56;5054565;28;20052;-78
2021/09/19 16:27:57;;;;;;;0.40;0.40;;;;;;;10.80;71.59;92112.88;5054540;28;20052;-78
2021/09/19 16:30:24;;;;;;;0.30;0.30;;;;;;;10.82;71.00;92102.13;5047031;28;20045;-79
2021/09/19 16:32:51;;;;;;;0.30;0.30;;;;;;;10.83;71.59;92129.88;5056995;28;20116;-80
2021/09/19 16:35:17;;;;;;;0.50;0.50;;;;;;;10.89;71.08;92126.03;5062432;28;20071;-79
2021/09/19 16:37:43;;;;;;;0.40;0.40;;;;;;;10.94;71.49;92120.72;5044890;28;20043;-80
2021/09/19 16:40:09;;;;;;;0.68;0.57;;;;;;;10.91;73.64;92138.84;5053163;28;20124;-79
2021/09/19 16:42:35;;;;;;;0.68;0.50;;;;;;;10.94;76.82;92109.44;5045376;28;20119;-79
2021/09/19 16:45:01;;;;;;;0.95;0.75;;;;;;;10.86;74.24;92115.41;5046811;28;20096;-79
2021/09/19 16:47:26;;;;;;;0.40;0.40;;;;;;;10.96;72.58;92118.56;5041077;28;20060;-79
2021/09/19 16:49:52;;;;;;;0.47;0.40;;;;;;;10.95;73.26;92109.16;5062185;28;20408;-79
2021/09/19 16:52:19;;;;;;;0.40;0.40;;;;;;;10.97;72.83;92098.41;5038315;28;20036;-78
2021/09/19 16:54:45;;;;;;;1.33;0.63;;;;;;;10.98;74.93;92105.16;5057806;28;20063;-80
2021/09/19 16:57:10;;;;;;;1.35;0.85;;;;;;;10.99;73.63;92086.53;5039885;28;20057;-78